createdAt,value
2018-12-31T00:03:24.774Z,9.07
2018-12-31T00:06:12.598Z,9.00
2018-12-31T00:08:41.075Z,8.99
2018-12-31T00:11:28.811Z,8.93
2018-12-31T00:14:16.553Z,8.78
2018-12-31T00:16:45.042Z,8.75
2018-12-31T00:19:13.531Z,8.46
2018-12-31T00:22:01.360Z,8.47
2018-12-31T00:24:49.121Z,8.48
2018-12-31T00:27:17.611Z,8.40
2018-12-31T00:32:52.656Z,8.52
2018-12-31T00:35:21.136Z,8.48
2018-12-31T00:38:09.104Z,8.45
2018-12-31T00:40:56.966Z,8.57
2018-12-31T00:43:25.845Z,8.69
2018-12-31T00:45:54.421Z,8.39
2018-12-31T00:48:42.297Z,8.35
2018-12-31T00:53:58.371Z,8.26
2018-12-31T00:59:00.614Z,8.41
2018-12-31T01:01:48.372Z,8.42
2018-12-31T01:04:17.014Z,8.46
2018-12-31T01:07:04.868Z,8.33
2018-12-31T01:12:22.529Z,8.48
2018-12-31T01:15:10.434Z,8.48
2018-12-31T01:17:38.933Z,8.60
2018-12-31T01:20:26.857Z,8.36
2018-12-31T01:22:55.354Z,8.46
2018-12-31T01:25:23.936Z,8.43
2018-12-31T01:28:11.679Z,8.48
2018-12-31T01:30:59.430Z,8.56
2018-12-31T01:33:47.303Z,8.63
2018-12-31T01:36:35.033Z,8.66
2018-12-31T01:41:58.714Z,8.68
2018-12-31T01:44:27.275Z,8.74
2018-12-31T01:47:15.101Z,8.54
2018-12-31T01:50:02.961Z,8.67
2018-12-31T01:52:50.741Z,8.55
2018-12-31T01:55:38.605Z,8.64
2018-12-31T01:58:26.480Z,8.80
2018-12-31T02:00:54.974Z,8.74
2018-12-31T02:03:42.585Z,8.83
2018-12-31T02:06:30.320Z,8.90
2018-12-31T02:08:58.955Z,8.89
2018-12-31T02:11:46.557Z,9.07
2018-12-31T02:14:15.194Z,9.18
2018-12-31T02:17:02.793Z,9.13
2018-12-31T02:22:05.372Z,9.06
2018-12-31T02:24:53.111Z,8.98
2018-12-31T02:27:40.938Z,9.06
2018-12-31T02:30:09.434Z,8.91
2018-12-31T02:32:57.041Z,8.88
2018-12-31T02:38:12.981Z,8.78
2018-12-31T02:41:00.576Z,8.81
2018-12-31T02:43:48.409Z,8.81
2018-12-31T02:46:36.234Z,8.69
2018-12-31T02:51:58.022Z,8.68
2018-12-31T02:54:45.853Z,8.76
2018-12-31T02:57:33.682Z,8.85
2018-12-31T03:00:21.599Z,8.86
2018-12-31T03:02:50.083Z,8.97
2018-12-31T03:05:18.577Z,8.79
2018-12-31T03:08:06.398Z,8.85
2018-12-31T03:10:34.899Z,8.95
2018-12-31T03:13:05.106Z,9.06
2018-12-31T03:15:52.711Z,9.12
2018-12-31T03:18:40.466Z,8.79
2018-12-31T03:21:08.959Z,8.92
2018-12-31T03:23:37.453Z,9.08
2018-12-31T03:28:39.654Z,9.22
2018-12-31T03:31:27.482Z,9.14
2018-12-31T03:33:55.999Z,9.04
2018-12-31T03:37:04.394Z,9.14
2018-12-31T03:39:52.007Z,9.22
2018-12-31T03:42:39.602Z,9.14
2018-12-31T03:45:27.336Z,9.21
2018-12-31T03:47:55.924Z,9.16
2018-12-31T03:50:24.494Z,8.98
2018-12-31T03:52:52.972Z,8.97
2018-12-31T03:55:40.707Z,8.89
2018-12-31T03:58:28.443Z,8.94
2018-12-31T04:03:50.316Z,8.98
2018-12-31T04:06:38.142Z,8.95
2018-12-31T04:09:46.548Z,9.04
2018-12-31T04:12:34.267Z,9.12
2018-12-31T04:15:22.006Z,9.04
2018-12-31T04:18:09.602Z,9.05
2018-12-31T04:20:57.341Z,8.92
2018-12-31T04:23:45.160Z,9.04
2018-12-31T04:26:32.895Z,8.94
2018-12-31T04:31:48.830Z,9.12
2018-12-31T04:34:36.435Z,8.97
2018-12-31T04:37:24.259Z,8.96
2018-12-31T04:39:52.867Z,9.15
2018-12-31T04:42:22.960Z,9.21
2018-12-31T04:44:51.525Z,9.16
2018-12-31T04:47:40.721Z,9.11
2018-12-31T04:50:09.268Z,9.02
2018-12-31T04:52:37.738Z,9.16
2018-12-31T04:55:25.472Z,9.19
2018-12-31T04:57:53.994Z,9.22
2018-12-31T05:00:41.607Z,9.15
2018-12-31T05:03:29.330Z,9.06
2018-12-31T05:06:17.076Z,9.26
2018-12-31T05:09:04.751Z,9.36
2018-12-31T05:11:33.295Z,9.40
2018-12-31T05:14:21.061Z,9.37
2018-12-31T05:16:49.555Z,9.35
2018-12-31T05:19:37.298Z,9.49
2018-12-31T05:22:05.850Z,9.45
2018-12-31T05:24:34.345Z,9.56
2018-12-31T05:27:21.962Z,9.64
2018-12-31T05:32:57.051Z,9.66
2018-12-31T05:35:25.547Z,9.66
2018-12-31T05:38:13.270Z,9.82
2018-12-31T05:40:41.758Z,9.80
2018-12-31T05:43:10.241Z,9.70
2018-12-31T05:45:57.863Z,9.74
2018-12-31T05:51:13.787Z,9.68
2018-12-31T05:53:42.271Z,9.59
2018-12-31T05:56:29.882Z,9.73
2018-12-31T05:59:17.606Z,9.74
2018-12-31T06:02:05.215Z,9.66
2018-12-31T06:04:52.814Z,9.78
2018-12-31T06:07:40.550Z,9.69
2018-12-31T06:10:09.035Z,9.71
2018-12-31T06:12:37.530Z,9.60
2018-12-31T06:15:45.927Z,9.64
2018-12-31T06:18:14.418Z,9.74
2018-12-31T06:21:02.151Z,9.73
2018-12-31T06:26:43.293Z,9.80
2018-12-31T06:29:11.770Z,9.65
2018-12-31T06:34:14.199Z,9.53
2018-12-31T06:37:01.935Z,9.47
2018-12-31T06:39:49.531Z,9.33
2018-12-31T06:42:37.273Z,9.50
2018-12-31T06:45:45.666Z,9.39
2018-12-31T06:48:33.398Z,9.34
2018-12-31T06:51:21.369Z,9.12
2018-12-31T06:54:08.979Z,9.15
2018-12-31T06:59:24.909Z,9.26
2018-12-31T07:02:12.513Z,9.17
2018-12-31T07:05:00.175Z,9.25
2018-12-31T07:07:47.968Z,9.29
2018-12-31T07:10:16.448Z,9.34
2018-12-31T07:12:44.938Z,9.40
2018-12-31T07:15:13.418Z,9.58
2018-12-31T07:17:41.910Z,9.37
2018-12-31T07:20:10.410Z,9.29
2018-12-31T07:22:38.896Z,9.45
2018-12-31T07:25:26.487Z,9.21
2018-12-31T07:27:54.988Z,9.32
2018-12-31T07:30:23.732Z,9.34
2018-12-31T07:32:52.230Z,9.37
2018-12-31T07:35:39.843Z,9.40
2018-12-31T07:40:42.231Z,9.52
2018-12-31T07:43:10.724Z,9.54
2018-12-31T07:45:58.327Z,9.45
2018-12-31T07:48:26.826Z,9.39
2018-12-31T07:53:42.747Z,9.43
2018-12-31T07:56:30.576Z,9.62
2018-12-31T07:58:59.064Z,9.42
2018-12-31T08:01:27.548Z,9.57
2018-12-31T08:03:56.034Z,9.26
2018-12-31T08:06:43.859Z,9.36
2018-12-31T08:09:31.601Z,9.54
2018-12-31T08:12:00.088Z,9.48
2018-12-31T08:14:47.932Z,9.44
2018-12-31T08:17:35.542Z,9.40
2018-12-31T08:20:23.389Z,9.36
2018-12-31T08:22:51.869Z,9.23
2018-12-31T08:25:20.375Z,9.44
2018-12-31T08:28:08.110Z,9.66
2018-12-31T08:30:55.717Z,9.87
2018-12-31T08:36:11.663Z,10.06
2018-12-31T08:38:40.149Z,9.98
2018-12-31T08:41:27.757Z,10.05
2018-12-31T08:46:43.704Z,10.12
2018-12-31T08:49:31.443Z,10.18
2018-12-31T08:52:19.175Z,10.31
2018-12-31T08:54:47.667Z,10.25
2018-12-31T08:57:35.268Z,10.32
2018-12-31T09:00:43.678Z,10.28
2018-12-31T09:06:18.725Z,10.36
2018-12-31T09:09:06.477Z,10.45
2018-12-31T09:11:34.990Z,10.40
2018-12-31T09:14:22.826Z,10.22
2018-12-31T09:16:51.316Z,9.95
2018-12-31T09:19:39.135Z,10.02
2018-12-31T09:22:07.627Z,10.01
2018-12-31T09:24:55.456Z,9.94
2018-12-31T09:27:43.184Z,10.16
2018-12-31T09:30:30.796Z,10.10
2018-12-31T09:32:59.281Z,10.13
2018-12-31T09:35:47.021Z,10.27
2018-12-31T09:38:15.500Z,10.27
2018-12-31T09:41:03.332Z,10.25
2018-12-31T09:43:31.819Z,10.24
2018-12-31T09:46:19.557Z,10.34
2018-12-31T09:48:48.044Z,10.19
2018-12-31T09:51:35.791Z,9.77
2018-12-31T09:54:04.271Z,9.91
2018-12-31T09:56:32.762Z,10.16
2018-12-31T09:59:01.263Z,10.06
2018-12-31T10:01:29.745Z,10.10
2018-12-31T10:03:58.229Z,10.31
2018-12-31T10:06:45.837Z,10.41
2018-12-31T10:09:14.328Z,10.09
2018-12-31T10:11:42.830Z,10.25
2018-12-31T10:14:11.323Z,10.39
2018-12-31T10:16:59.062Z,10.46
2018-12-31T10:19:27.573Z,10.45
2018-12-31T10:24:30.169Z,10.48
2018-12-31T10:26:58.684Z,10.47
2018-12-31T10:29:46.410Z,10.48
2018-12-31T10:32:14.905Z,10.31
2018-12-31T10:35:02.643Z,10.58
2018-12-31T10:37:50.388Z,10.49
2018-12-31T10:40:18.880Z,10.51
2018-12-31T10:42:47.371Z,10.19
2018-12-31T10:45:35.101Z,10.31
2018-12-31T10:48:22.719Z,10.17
2018-12-31T10:50:51.204Z,10.19
2018-12-31T10:53:19.711Z,10.31
2018-12-31T10:55:48.198Z,10.15
2018-12-31T10:58:16.698Z,10.19
2018-12-31T11:00:45.181Z,10.15
2018-12-31T11:03:13.671Z,10.26
2018-12-31T11:05:42.155Z,10.28
2018-12-31T11:08:10.667Z,9.91
2018-12-31T11:10:58.256Z,9.82
2018-12-31T11:13:26.738Z,10.01
2018-12-31T11:18:29.710Z,9.91
2018-12-31T11:20:58.199Z,9.83
2018-12-31T11:23:26.679Z,9.78
2018-12-31T11:26:14.416Z,9.68
2018-12-31T11:29:02.010Z,9.70
2018-12-31T11:31:30.685Z,9.67
2018-12-31T11:34:00.720Z,9.83
2018-12-31T11:36:29.286Z,9.68
2018-12-31T11:38:57.774Z,9.80
2018-12-31T11:41:26.274Z,9.79
2018-12-31T11:43:54.748Z,9.83
2018-12-31T11:46:23.229Z,9.70
2018-12-31T11:49:03.968Z,9.81
2018-12-31T11:51:32.459Z,9.78
2018-12-31T11:54:20.051Z,9.89
2018-12-31T11:57:07.792Z,10.00
2018-12-31T11:59:55.391Z,9.87
2018-12-31T12:02:23.907Z,9.87
2018-12-31T12:05:11.699Z,9.75
2018-12-31T12:07:40.186Z,9.75
2018-12-31T12:10:08.672Z,9.78
2018-12-31T12:12:56.284Z,9.76
2018-12-31T12:15:24.766Z,10.01
2018-12-31T12:17:53.259Z,10.05
2018-12-31T12:20:40.989Z,10.11
2018-12-31T12:23:09.484Z,10.19
2018-12-31T12:28:25.426Z,10.23
2018-12-31T12:30:53.922Z,10.11
2018-12-31T12:33:22.427Z,10.12
2018-12-31T12:36:10.163Z,10.04
2018-12-31T12:38:38.652Z,9.96
2018-12-31T12:41:07.131Z,10.02
2018-12-31T12:43:35.623Z,9.92
2018-12-31T12:46:23.353Z,9.90
2018-12-31T12:48:51.848Z,9.84
2018-12-31T12:51:39.698Z,10.00
2018-12-31T12:54:09.902Z,10.06
2018-12-31T12:56:57.511Z,10.08
2018-12-31T12:59:25.993Z,10.15
2018-12-31T13:01:54.470Z,10.07
2018-12-31T13:04:42.312Z,9.97
2018-12-31T13:07:10.818Z,9.97
2018-12-31T13:09:58.556Z,9.58
2018-12-31T13:12:27.054Z,9.71
2018-12-31T13:14:55.531Z,9.64
2018-12-31T13:17:24.017Z,9.85
2018-12-31T13:20:11.751Z,9.91
2018-12-31T13:22:40.293Z,9.99
2018-12-31T13:25:08.772Z,10.18
2018-12-31T13:27:56.518Z,10.08
2018-12-31T13:30:44.347Z,9.93
2018-12-31T13:33:32.173Z,9.94
2018-12-31T13:36:19.904Z,9.97
2018-12-31T13:38:48.410Z,10.19
2018-12-31T13:41:36.015Z,10.22
2018-12-31T13:49:31.726Z,10.21
2018-12-31T13:52:00.219Z,10.49
2018-12-31T13:54:47.955Z,10.38
2018-12-31T13:57:37.428Z,10.30
2018-12-31T14:00:45.831Z,10.35
2018-12-31T14:03:33.440Z,10.14
2018-12-31T14:06:09.005Z,9.79
2018-12-31T14:08:37.570Z,9.97
2018-12-31T14:11:06.047Z,9.93
2018-12-31T14:13:53.787Z,10.01
2018-12-31T14:19:09.728Z,10.14
2018-12-31T14:21:38.213Z,10.16
2018-12-31T14:24:06.704Z,10.28
2018-12-31T14:26:36.922Z,10.38
2018-12-31T14:29:05.415Z,9.99
2018-12-31T14:31:53.307Z,10.11
2018-12-31T14:34:40.921Z,10.33
2018-12-31T14:37:28.563Z,10.30
2018-12-31T14:39:57.059Z,10.24
2018-12-31T14:42:25.535Z,10.04
2018-12-31T14:44:54.046Z,10.07
2018-12-31T14:47:22.525Z,9.96
2018-12-31T14:50:10.131Z,10.16
2018-12-31T14:52:38.617Z,10.10
2018-12-31T14:55:07.110Z,9.97
2018-12-31T14:57:54.940Z,9.99
2018-12-31T15:00:44.500Z,10.11
2018-12-31T15:03:32.116Z,10.11
2018-12-31T15:06:00.603Z,10.07
2018-12-31T15:13:56.297Z,10.05
2018-12-31T15:16:24.784Z,10.24
2018-12-31T15:18:53.300Z,9.97
2018-12-31T15:21:41.028Z,9.86
2018-12-31T15:24:11.247Z,10.04
2018-12-31T15:29:46.426Z,10.07
2018-12-31T15:32:14.914Z,10.16
2018-12-31T15:35:02.753Z,10.07
2018-12-31T15:37:31.240Z,10.00
2018-12-31T15:40:20.771Z,9.95
2018-12-31T15:43:08.374Z,10.03
2018-12-31T15:48:11.637Z,10.10
2018-12-31T15:50:40.127Z,10.21
2018-12-31T15:53:27.870Z,10.23
2018-12-31T15:55:56.379Z,10.06
2018-12-31T15:58:24.885Z,9.99
2018-12-31T16:03:46.702Z,10.36
2018-12-31T16:06:15.247Z,10.30
2018-12-31T16:14:31.337Z,10.29
2018-12-31T16:19:47.351Z,10.57
2018-12-31T16:25:03.299Z,10.74
2018-12-31T16:30:19.289Z,10.60
2018-12-31T16:35:54.416Z,10.49
2018-12-31T16:38:22.947Z,10.57
2018-12-31T16:40:51.508Z,10.53
2018-12-31T16:43:39.374Z,10.43
2018-12-31T16:46:07.876Z,10.31
2018-12-31T16:48:36.371Z,10.17
2018-12-31T16:51:04.886Z,10.06
2018-12-31T16:53:52.618Z,9.99
2018-12-31T16:56:21.135Z,9.75
2018-12-31T16:58:49.677Z,9.74
2018-12-31T17:01:19.938Z,9.77
2018-12-31T17:03:48.441Z,9.82
2018-12-31T17:06:36.283Z,9.86
2018-12-31T17:09:44.723Z,9.88
2018-12-31T17:12:32.353Z,9.81
2018-12-31T17:15:00.854Z,9.79
2018-12-31T17:17:29.373Z,9.72
2018-12-31T17:19:57.889Z,9.70
2018-12-31T17:22:26.388Z,9.83
2018-12-31T17:24:54.914Z,9.80
2018-12-31T17:27:25.124Z,9.88
2018-12-31T17:30:12.873Z,10.01
2018-12-31T17:33:01.463Z,10.05
2018-12-31T17:35:30.851Z,10.07
2018-12-31T17:38:18.573Z,9.79
2018-12-31T17:41:06.340Z,9.54
2018-12-31T17:43:34.832Z,9.77
2018-12-31T17:46:22.604Z,9.67
2018-12-31T17:48:52.819Z,9.66
2018-12-31T17:51:40.605Z,9.58
2018-12-31T17:54:28.349Z,9.54
2018-12-31T17:56:56.824Z,9.44
2018-12-31T17:59:44.562Z,9.54
2018-12-31T18:02:13.077Z,9.42
2018-12-31T18:05:02.563Z,9.40
2018-12-31T18:07:31.052Z,9.38
2018-12-31T18:10:18.803Z,9.56
2018-12-31T18:13:06.533Z,9.66
2018-12-31T18:15:35.054Z,9.74
2018-12-31T18:18:22.654Z,9.89
2018-12-31T18:20:51.160Z,9.78
2018-12-31T18:26:07.122Z,9.95
2018-12-31T18:28:35.627Z,9.79
2018-12-31T18:31:23.369Z,9.82
2018-12-31T18:33:51.856Z,9.74
2018-12-31T18:36:22.108Z,9.63
2018-12-31T18:39:09.705Z,9.50
2018-12-31T18:41:57.551Z,9.59
2018-12-31T18:44:26.039Z,9.44
2018-12-31T18:46:54.536Z,9.46
2018-12-31T18:49:23.036Z,9.72
2018-12-31T18:51:51.524Z,9.84
2018-12-31T18:54:39.144Z,9.83
2018-12-31T19:00:14.224Z,9.84
2018-12-31T19:03:01.786Z,9.75
2018-12-31T19:05:30.268Z,9.73
2018-12-31T19:08:00.520Z,9.61
2018-12-31T19:10:29.017Z,9.61
2018-12-31T19:12:57.507Z,9.50
2018-12-31T19:15:26.012Z,9.62
2018-12-31T19:18:13.833Z,9.59
2018-12-31T19:20:42.339Z,9.50
2018-12-31T19:23:29.947Z,9.60
2018-12-31T19:25:58.465Z,9.72
2018-12-31T19:28:26.979Z,9.72
2018-12-31T19:31:14.715Z,9.69
2018-12-31T19:33:43.195Z,9.72
2018-12-31T19:36:30.801Z,9.81
2018-12-31T19:38:59.281Z,9.86
2018-12-31T19:44:20.717Z,9.95
2018-12-31T19:46:49.176Z,9.80
2018-12-31T19:49:36.841Z,9.83
2018-12-31T19:52:24.575Z,9.83
2018-12-31T19:54:53.096Z,9.81
2018-12-31T19:57:40.902Z,9.82
2018-12-31T20:00:49.600Z,9.87
2018-12-31T20:03:18.384Z,9.72
2018-12-31T20:05:48.691Z,9.81
2018-12-31T20:08:17.320Z,9.68
2018-12-31T20:10:45.911Z,9.73
2018-12-31T20:13:14.478Z,9.68
2018-12-31T20:15:48.499Z,9.75
2018-12-31T20:18:13.325Z,9.69
2018-12-31T20:20:41.957Z,9.38
2018-12-31T20:23:10.461Z,9.31
2018-12-31T20:25:39.002Z,9.41
2018-12-31T20:30:54.956Z,9.43
2018-12-31T20:33:23.464Z,9.28
2018-12-31T20:35:52.034Z,9.28
2018-12-31T20:38:20.556Z,9.22
2018-12-31T20:40:49.130Z,9.08
2018-12-31T20:43:17.623Z,9.17
2018-12-31T20:46:05.477Z,9.15
2018-12-31T20:48:53.065Z,9.16
2018-12-31T20:51:21.572Z,9.15
2018-12-31T20:53:50.061Z,9.18
2018-12-31T20:56:18.621Z,9.09
2018-12-31T20:58:47.122Z,9.16
2018-12-31T21:01:15.636Z,9.05
2018-12-31T21:03:45.849Z,8.98
2018-12-31T21:06:14.434Z,9.01
2018-12-31T21:09:02.195Z,8.96
2018-12-31T21:11:30.750Z,8.97
2018-12-31T21:13:59.256Z,8.97
2018-12-31T21:16:27.764Z,9.06
2018-12-31T21:18:56.238Z,9.04
2018-12-31T21:21:24.762Z,9.12
2018-12-31T21:24:12.491Z,9.25
2018-12-31T21:26:41.040Z,9.18
2018-12-31T21:29:28.643Z,9.31
2018-12-31T21:31:57.201Z,9.32
2018-12-31T21:34:25.747Z,9.30
2018-12-31T21:36:54.302Z,9.20
2018-12-31T21:39:22.805Z,9.25
2018-12-31T21:42:10.545Z,9.39
2018-12-31T21:44:58.234Z,9.41
2018-12-31T21:47:26.847Z,9.24
2018-12-31T21:50:14.747Z,9.32
2018-12-31T21:53:02.505Z,9.26
2018-12-31T21:55:30.998Z,9.14
2018-12-31T22:00:53.073Z,8.92
2018-12-31T22:03:21.575Z,8.96
2018-12-31T22:06:09.418Z,8.91
2018-12-31T22:08:37.938Z,9.06
2018-12-31T22:11:06.447Z,8.93
2018-12-31T22:13:54.296Z,9.04
2018-12-31T22:16:22.819Z,9.05
2018-12-31T22:19:10.644Z,9.02
2018-12-31T22:21:58.301Z,9.02
2018-12-31T22:24:26.851Z,9.06
2018-12-31T22:26:55.383Z,8.95
2018-12-31T22:29:23.933Z,9.12
2018-12-31T22:32:11.658Z,9.10
2018-12-31T22:34:59.295Z,9.10
2018-12-31T22:37:46.943Z,9.00
2018-12-31T22:40:15.481Z,8.80
2018-12-31T22:42:44.034Z,8.85
2018-12-31T22:45:31.836Z,8.96
2018-12-31T22:48:12.724Z,8.81
2018-12-31T22:51:00.319Z,8.70
2018-12-31T22:53:28.881Z,8.58
2018-12-31T22:55:57.448Z,8.64
2018-12-31T22:58:45.349Z,8.55
2018-12-31T23:01:13.998Z,8.71
2018-12-31T23:03:44.172Z,8.57
2018-12-31T23:06:12.739Z,8.55
2018-12-31T23:11:14.898Z,8.43
2018-12-31T23:13:43.441Z,8.42
2018-12-31T23:19:20.085Z,8.45
2018-12-31T23:21:50.290Z,8.31
2018-12-31T23:24:18.784Z,8.31
2018-12-31T23:27:06.440Z,8.34
2018-12-31T23:29:34.904Z,8.23
2018-12-31T23:32:05.108Z,8.23
2018-12-31T23:34:33.598Z,8.27
2018-12-31T23:37:02.080Z,8.32
2018-12-31T23:40:10.479Z,8.40
2018-12-31T23:43:06.148Z,8.30
2018-12-31T23:45:28.425Z,8.44
2018-12-31T23:47:58.633Z,8.34
2018-12-31T23:50:27.129Z,8.15
2018-12-31T23:52:55.607Z,8.16
2018-12-31T23:55:24.094Z,8.14
2018-12-31T23:58:11.688Z,8.29
